sensor_id;sensor_type;location;lat;lon;timestamp;temperature;humidity
31369;DHT22;18004;48.416;10.066;2024-03-02T00:00:08;5.70;99.90
31369;DHT22;18004;48.416;10.066;2024-03-02T00:02:45;5.60;99.90
31369;DHT22;18004;48.416;10.066;2024-03-02T00:05:12;5.70;99.90
31369;DHT22;18004;48.416;10.066;2024-03-02T00:07:42;5.90;99.90
31369;DHT22;18004;48.416;10.066;2024-03-02T00:10:09;6.00;99.90
31369;DHT22;18004;48.416;10.066;2024-03-02T00:12:39;5.90;99.90
31369;DHT22;18004;48.416;10.066;2024-03-02T00:18:04;5.90;99.90
31369;DHT22;18004;48.416;10.066;2024-03-02T00:20:31;6.00;99.90
31369;DHT22;18004;48.416;10.066;2024-03-02T00:23:03;5.90;99.90
31369;DHT22;18004;48.416;10.066;2024-03-02T00:25:46;6.10;99.90
31369;DHT22;18004;48.416;10.066;2024-03-02T00:28:33;6.20;99.90
31369;DHT22;18004;48.416;10.066;2024-03-02T00:31:10;6.20;99.90
31369;DHT22;18004;48.416;10.066;2024-03-02T00:33:44;6.20;99.90
31369;DHT22;18004;48.416;10.066;2024-03-02T00:36:14;6.30;99.90
31369;DHT22;18004;48.416;10.066;2024-03-02T00:38:47;6.30;99.90
31369;DHT22;18004;48.416;10.066;2024-03-02T00:44:03;6.50;99.90
31369;DHT22;18004;48.416;10.066;2024-03-02T00:46:33;6.50;99.90
31369;DHT22;18004;48.416;10.066;2024-03-02T00:49:00;6.40;99.90
31369;DHT22;18004;48.416;10.066;2024-03-02T00:51:29;6.40;99.90
31369;DHT22;18004;48.416;10.066;2024-03-02T00:53:58;6.30;99.90
31369;DHT22;18004;48.416;10.066;2024-03-02T00:56:25;6.50;99.90
31369;DHT22;18004;48.416;10.066;2024-03-02T00:58:52;6.50;99.90
31369;DHT22;18004;48.416;10.066;2024-03-02T01:01:18;6.60;99.90
31369;DHT22;18004;48.416;10.066;2024-03-02T01:03:45;6.60;99.90
31369;DHT22;18004;48.416;10.066;2024-03-02T01:06:11;6.40;99.90
31369;DHT22;18004;48.416;10.066;2024-03-02T01:08:38;6.20;99.90
31369;DHT22;18004;48.416;10.066;2024-03-02T01:11:04;6.00;99.90
31369;DHT22;18004;48.416;10.066;2024-03-02T01:13:31;6.00;99.90
31369;DHT22;18004;48.416;10.066;2024-03-02T01:15:57;6.00;99.90
31369;DHT22;18004;48.416;10.066;2024-03-02T01:18:23;5.90;99.90
31369;DHT22;18004;48.416;10.066;2024-03-02T01:20:49;5.90;99.90
31369;DHT22;18004;48.416;10.066;2024-03-02T01:23:18;5.90;99.90
31369;DHT22;18004;48.416;10.066;2024-03-02T01:25:46;5.80;99.90
31369;DHT22;18004;48.416;10.066;2024-03-02T01:28:12;5.80;99.90
31369;DHT22;18004;48.416;10.066;2024-03-02T01:30:38;5.80;99.90
31369;DHT22;18004;48.416;10.066;2024-03-02T01:33:04;5.80;99.90
31369;DHT22;18004;48.416;10.066;2024-03-02T01:35:31;5.90;99.90
31369;DHT22;18004;48.416;10.066;2024-03-02T01:37:57;5.90;99.90
31369;DHT22;18004;48.416;10.066;2024-03-02T01:40:23;5.90;99.90
31369;DHT22;18004;48.416;10.066;2024-03-02T01:42:53;5.80;99.90
31369;DHT22;18004;48.416;10.066;2024-03-02T01:45:23;5.80;99.90
31369;DHT22;18004;48.416;10.066;2024-03-02T01:47:49;5.70;99.90
31369;DHT22;18004;48.416;10.066;2024-03-02T01:50:15;5.70;99.90
31369;DHT22;18004;48.416;10.066;2024-03-02T01:52:41;5.60;99.90
31369;DHT22;18004;48.416;10.066;2024-03-02T01:55:07;5.60;99.90
31369;DHT22;18004;48.416;10.066;2024-03-02T01:57:34;5.60;99.90
31369;DHT22;18004;48.416;10.066;2024-03-02T02:00:00;5.60;99.90
31369;DHT22;18004;48.416;10.066;2024-03-02T02:02:26;5.50;99.90
31369;DHT22;18004;48.416;10.066;2024-03-02T02:04:52;5.40;99.90
31369;DHT22;18004;48.416;10.066;2024-03-02T02:07:18;5.30;99.90
31369;DHT22;18004;48.416;10.066;2024-03-02T02:09:44;5.30;99.90
31369;DHT22;18004;48.416;10.066;2024-03-02T02:12:10;5.20;99.90
31369;DHT22;18004;48.416;10.066;2024-03-02T02:14:36;5.20;99.90
31369;DHT22;18004;48.416;10.066;2024-03-02T02:17:02;5.30;99.90
31369;DHT22;18004;48.416;10.066;2024-03-02T02:19:28;5.30;99.90
31369;DHT22;18004;48.416;10.066;2024-03-02T02:21:55;5.30;99.90
31369;DHT22;18004;48.416;10.066;2024-03-02T02:24:20;5.30;99.90
31369;DHT22;18004;48.416;10.066;2024-03-02T02:26:46;5.30;99.90
31369;DHT22;18004;48.416;10.066;2024-03-02T02:29:12;5.30;99.90
31369;DHT22;18004;48.416;10.066;2024-03-02T02:31:38;5.30;99.90
31369;DHT22;18004;48.416;10.066;2024-03-02T02:34:05;5.30;99.90
31369;DHT22;18004;48.416;10.066;2024-03-02T02:36:32;5.30;99.90
31369;DHT22;18004;48.416;10.066;2024-03-02T02:38:59;5.30;99.90
31369;DHT22;18004;48.416;10.066;2024-03-02T02:41:29;5.40;99.90
31369;DHT22;18004;48.416;10.066;2024-03-02T02:43:55;5.40;99.90
31369;DHT22;18004;48.416;10.066;2024-03-02T02:46:21;5.40;99.90
31369;DHT22;18004;48.416;10.066;2024-03-02T02:48:46;5.40;99.90
31369;DHT22;18004;48.416;10.066;2024-03-02T02:51:12;5.40;99.90
31369;DHT22;18004;48.416;10.066;2024-03-02T02:53:38;5.40;99.90
31369;DHT22;18004;48.416;10.066;2024-03-02T02:56:09;5.40;99.90
31369;DHT22;18004;48.416;10.066;2024-03-02T02:58:35;5.40;99.90
31369;DHT22;18004;48.416;10.066;2024-03-02T03:01:01;5.40;99.90
31369;DHT22;18004;48.416;10.066;2024-03-02T03:03:27;5.40;99.90
31369;DHT22;18004;48.416;10.066;2024-03-02T03:05:52;5.50;99.90
31369;DHT22;18004;48.416;10.066;2024-03-02T03:08:18;5.50;99.90
31369;DHT22;18004;48.416;10.066;2024-03-02T03:10:44;5.50;99.90
31369;DHT22;18004;48.416;10.066;2024-03-02T03:13:10;5.40;99.90
31369;DHT22;18004;48.416;10.066;2024-03-02T03:15:36;5.30;99.90
31369;DHT22;18004;48.416;10.066;2024-03-02T03:18:03;5.30;99.90
31369;DHT22;18004;48.416;10.066;2024-03-02T03:20:30;5.30;99.90
31369;DHT22;18004;48.416;10.066;2024-03-02T03:22:56;5.20;99.90
31369;DHT22;18004;48.416;10.066;2024-03-02T03:25:22;5.20;99.90
31369;DHT22;18004;48.416;10.066;2024-03-02T03:27:48;5.20;99.90
31369;DHT22;18004;48.416;10.066;2024-03-02T03:30:14;5.10;99.90
31369;DHT22;18004;48.416;10.066;2024-03-02T03:32:40;5.10;99.90
31369;DHT22;18004;48.416;10.066;2024-03-02T03:35:06;5.10;99.90
31369;DHT22;18004;48.416;10.066;2024-03-02T03:37:32;5.10;99.90
31369;DHT22;18004;48.416;10.066;2024-03-02T03:39:59;5.10;99.90
31369;DHT22;18004;48.416;10.066;2024-03-02T03:42:26;5.10;99.90
31369;DHT22;18004;48.416;10.066;2024-03-02T03:44:52;5.10;99.90
31369;DHT22;18004;48.416;10.066;2024-03-02T03:47:18;5.10;99.90
31369;DHT22;18004;48.416;10.066;2024-03-02T03:49:44;5.10;99.90
31369;DHT22;18004;48.416;10.066;2024-03-02T03:52:09;5.10;99.90
31369;DHT22;18004;48.416;10.066;2024-03-02T03:54:35;5.00;99.90
31369;DHT22;18004;48.416;10.066;2024-03-02T03:57:02;5.10;99.90
31369;DHT22;18004;48.416;10.066;2024-03-02T03:59:29;5.00;99.90
31369;DHT22;18004;48.416;10.066;2024-03-02T04:01:54;5.00;99.90
31369;DHT22;18004;48.416;10.066;2024-03-02T04:04:20;5.00;99.90
31369;DHT22;18004;48.416;10.066;2024-03-02T04:06:46;5.00;99.90
31369;DHT22;18004;48.416;10.066;2024-03-02T04:09:12;5.00;99.90
31369;DHT22;18004;48.416;10.066;2024-03-02T04:11:38;5.00;99.90
31369;DHT22;18004;48.416;10.066;2024-03-02T04:14:03;4.90;99.90
31369;DHT22;18004;48.416;10.066;2024-03-02T04:16:31;4.90;99.90
31369;DHT22;18004;48.416;10.066;2024-03-02T04:18:57;4.90;99.90
31369;DHT22;18004;48.416;10.066;2024-03-02T04:21:23;4.80;99.90
31369;DHT22;18004;48.416;10.066;2024-03-02T04:23:49;4.80;99.90
31369;DHT22;18004;48.416;10.066;2024-03-02T04:26:14;4.80;99.90
31369;DHT22;18004;48.416;10.066;2024-03-02T04:28:45;4.70;99.90
31369;DHT22;18004;48.416;10.066;2024-03-02T04:31:11;4.70;99.90
31369;DHT22;18004;48.416;10.066;2024-03-02T04:33:36;4.70;99.90
31369;DHT22;18004;48.416;10.066;2024-03-02T04:36:02;4.70;99.90
31369;DHT22;18004;48.416;10.066;2024-03-02T04:38:28;4.70;99.90
31369;DHT22;18004;48.416;10.066;2024-03-02T04:40:54;4.70;99.90
31369;DHT22;18004;48.416;10.066;2024-03-02T04:43:20;4.70;99.90
31369;DHT22;18004;48.416;10.066;2024-03-02T04:45:46;4.60;99.90
31369;DHT22;18004;48.416;10.066;2024-03-02T04:48:11;4.70;99.90
31369;DHT22;18004;48.416;10.066;2024-03-02T04:50:38;4.70;99.90
31369;DHT22;18004;48.416;10.066;2024-03-02T04:53:04;4.80;99.90
31369;DHT22;18004;48.416;10.066;2024-03-02T04:55:29;4.80;99.90
31369;DHT22;18004;48.416;10.066;2024-03-02T04:58:21;4.80;99.90
31369;DHT22;18004;48.416;10.066;2024-03-02T05:00:46;4.80;99.90
31369;DHT22;18004;48.416;10.066;2024-03-02T05:03:12;4.80;99.90
31369;DHT22;18004;48.416;10.066;2024-03-02T05:05:39;4.80;99.90
31369;DHT22;18004;48.416;10.066;2024-03-02T05:08:05;4.80;99.90
31369;DHT22;18004;48.416;10.066;2024-03-02T05:10:31;4.80;99.90
31369;DHT22;18004;48.416;10.066;2024-03-02T05:12:56;4.80;99.90
31369;DHT22;18004;48.416;10.066;2024-03-02T05:15:24;4.80;99.90
31369;DHT22;18004;48.416;10.066;2024-03-02T05:17:51;4.90;99.90
31369;DHT22;18004;48.416;10.066;2024-03-02T05:20:17;4.90;99.90
31369;DHT22;18004;48.416;10.066;2024-03-02T05:22:43;4.80;99.90
31369;DHT22;18004;48.416;10.066;2024-03-02T05:25:09;4.70;99.90
31369;DHT22;18004;48.416;10.066;2024-03-02T05:27:37;4.70;99.90
31369;DHT22;18004;48.416;10.066;2024-03-02T05:30:03;4.70;99.90
31369;DHT22;18004;48.416;10.066;2024-03-02T05:32:32;4.70;99.90
31369;DHT22;18004;48.416;10.066;2024-03-02T05:34:58;4.70;99.90
31369;DHT22;18004;48.416;10.066;2024-03-02T05:37:23;4.80;99.90
31369;DHT22;18004;48.416;10.066;2024-03-02T05:39:49;4.80;99.90
31369;DHT22;18004;48.416;10.066;2024-03-02T05:42:15;4.80;99.90
31369;DHT22;18004;48.416;10.066;2024-03-02T05:44:42;4.80;99.90
31369;DHT22;18004;48.416;10.066;2024-03-02T05:47:08;4.70;99.90
31369;DHT22;18004;48.416;10.066;2024-03-02T05:49:36;4.70;99.90
31369;DHT22;18004;48.416;10.066;2024-03-02T05:52:02;4.70;99.90
31369;DHT22;18004;48.416;10.066;2024-03-02T05:54:28;4.60;99.90
31369;DHT22;18004;48.416;10.066;2024-03-02T05:56:54;4.60;99.90
31369;DHT22;18004;48.416;10.066;2024-03-02T05:59:20;4.60;99.90
31369;DHT22;18004;48.416;10.066;2024-03-02T06:01:46;4.50;99.90
31369;DHT22;18004;48.416;10.066;2024-03-02T06:04:12;4.60;99.90
31369;DHT22;18004;48.416;10.066;2024-03-02T06:06:39;4.50;99.90
31369;DHT22;18004;48.416;10.066;2024-03-02T06:09:06;4.60;99.90
31369;DHT22;18004;48.416;10.066;2024-03-02T06:11:38;4.50;99.90
31369;DHT22;18004;48.416;10.066;2024-03-02T06:14:05;4.60;99.90
31369;DHT22;18004;48.416;10.066;2024-03-02T06:16:32;4.60;99.90
31369;DHT22;18004;48.416;10.066;2024-03-02T06:18:58;4.60;99.90
31369;DHT22;18004;48.416;10.066;2024-03-02T06:21:24;4.60;99.90
31369;DHT22;18004;48.416;10.066;2024-03-02T06:23:50;4.60;99.90
31369;DHT22;18004;48.416;10.066;2024-03-02T06:26:16;4.50;99.90
31369;DHT22;18004;48.416;10.066;2024-03-02T06:28:42;4.50;99.90
31369;DHT22;18004;48.416;10.066;2024-03-02T06:31:08;4.60;99.90
31369;DHT22;18004;48.416;10.066;2024-03-02T06:33:34;4.60;99.90
31369;DHT22;18004;48.416;10.066;2024-03-02T06:36:00;4.60;99.90
31369;DHT22;18004;48.416;10.066;2024-03-02T06:38:26;4.60;99.90
31369;DHT22;18004;48.416;10.066;2024-03-02T06:40:52;4.60;99.90
31369;DHT22;18004;48.416;10.066;2024-03-02T06:43:18;4.60;99.90
31369;DHT22;18004;48.416;10.066;2024-03-02T06:45:44;4.60;99.90
31369;DHT22;18004;48.416;10.066;2024-03-02T06:48:09;4.60;99.90
31369;DHT22;18004;48.416;10.066;2024-03-02T06:50:36;4.60;99.90
31369;DHT22;18004;48.416;10.066;2024-03-02T06:53:01;4.60;99.90
31369;DHT22;18004;48.416;10.066;2024-03-02T06:55:29;4.60;99.90
31369;DHT22;18004;48.416;10.066;2024-03-02T06:57:55;4.60;99.90
31369;DHT22;18004;48.416;10.066;2024-03-02T07:00:21;4.60;99.90
31369;DHT22;18004;48.416;10.066;2024-03-02T07:02:47;4.60;99.90
31369;DHT22;18004;48.416;10.066;2024-03-02T07:05:13;4.60;99.90
31369;DHT22;18004;48.416;10.066;2024-03-02T07:07:38;4.60;99.90
31369;DHT22;18004;48.416;10.066;2024-03-02T07:10:05;4.70;99.90
31369;DHT22;18004;48.416;10.066;2024-03-02T07:12:31;4.70;99.90
31369;DHT22;18004;48.416;10.066;2024-03-02T07:14:57;4.70;99.90
31369;DHT22;18004;48.416;10.066;2024-03-02T07:17:30;4.70;99.90
31369;DHT22;18004;48.416;10.066;2024-03-02T07:19:56;4.70;99.90
31369;DHT22;18004;48.416;10.066;2024-03-02T07:22:22;4.70;99.90
31369;DHT22;18004;48.416;10.066;2024-03-02T07:24:49;4.80;99.90
31369;DHT22;18004;48.416;10.066;2024-03-02T07:27:15;4.80;99.90
31369;DHT22;18004;48.416;10.066;2024-03-02T07:29:42;4.80;99.90
31369;DHT22;18004;48.416;10.066;2024-03-02T07:32:08;4.80;99.90
31369;DHT22;18004;48.416;10.066;2024-03-02T07:34:35;4.80;99.90
31369;DHT22;18004;48.416;10.066;2024-03-02T07:37:01;4.80;99.90
31369;DHT22;18004;48.416;10.066;2024-03-02T07:39:26;4.90;99.90
31369;DHT22;18004;48.416;10.066;2024-03-02T07:41:52;4.90;99.90
31369;DHT22;18004;48.416;10.066;2024-03-02T07:44:18;4.90;99.90
31369;DHT22;18004;48.416;10.066;2024-03-02T07:46:45;4.90;99.90
31369;DHT22;18004;48.416;10.066;2024-03-02T07:49:18;5.00;99.90
31369;DHT22;18004;48.416;10.066;2024-03-02T07:51:44;5.00;99.90
31369;DHT22;18004;48.416;10.066;2024-03-02T07:54:10;5.00;99.90
31369;DHT22;18004;48.416;10.066;2024-03-02T07:56:36;5.10;99.90
31369;DHT22;18004;48.416;10.066;2024-03-02T07:59:03;5.10;99.90
31369;DHT22;18004;48.416;10.066;2024-03-02T08:01:30;5.20;99.90
31369;DHT22;18004;48.416;10.066;2024-03-02T08:04:00;5.20;99.90
31369;DHT22;18004;48.416;10.066;2024-03-02T08:06:27;5.20;99.90
31369;DHT22;18004;48.416;10.066;2024-03-02T08:09:00;5.20;99.90
31369;DHT22;18004;48.416;10.066;2024-03-02T08:11:27;5.20;99.90
31369;DHT22;18004;48.416;10.066;2024-03-02T08:13:53;5.20;99.90
31369;DHT22;18004;48.416;10.066;2024-03-02T08:16:22;5.20;99.90
31369;DHT22;18004;48.416;10.066;2024-03-02T08:18:51;5.20;99.90
31369;DHT22;18004;48.416;10.066;2024-03-02T08:21:17;5.20;99.90
31369;DHT22;18004;48.416;10.066;2024-03-02T08:23:43;5.20;99.90
31369;DHT22;18004;48.416;10.066;2024-03-02T08:26:10;5.20;99.90
31369;DHT22;18004;48.416;10.066;2024-03-02T08:28:36;5.20;99.90
31369;DHT22;18004;48.416;10.066;2024-03-02T08:31:03;5.20;99.90
31369;DHT22;18004;48.416;10.066;2024-03-02T08:33:29;5.20;99.90
31369;DHT22;18004;48.416;10.066;2024-03-02T08:35:55;5.20;99.90
31369;DHT22;18004;48.416;10.066;2024-03-02T08:38:21;5.30;99.90
31369;DHT22;18004;48.416;10.066;2024-03-02T08:40:47;5.30;99.90
31369;DHT22;18004;48.416;10.066;2024-03-02T08:43:13;5.30;99.90
31369;DHT22;18004;48.416;10.066;2024-03-02T08:45:40;5.30;99.90
31369;DHT22;18004;48.416;10.066;2024-03-02T08:48:09;5.30;99.90
31369;DHT22;18004;48.416;10.066;2024-03-02T08:50:37;5.30;99.90
31369;DHT22;18004;48.416;10.066;2024-03-02T08:53:04;5.30;99.90
31369;DHT22;18004;48.416;10.066;2024-03-02T08:55:30;5.30;99.90
31369;DHT22;18004;48.416;10.066;2024-03-02T08:57:56;5.30;99.90
31369;DHT22;18004;48.416;10.066;2024-03-02T09:00:22;5.30;99.90
31369;DHT22;18004;48.416;10.066;2024-03-02T09:02:49;5.30;99.90
31369;DHT22;18004;48.416;10.066;2024-03-02T09:05:15;5.20;99.90
31369;DHT22;18004;48.416;10.066;2024-03-02T09:07:41;5.20;99.90
31369;DHT22;18004;48.416;10.066;2024-03-02T09:10:07;5.30;99.90
31369;DHT22;18004;48.416;10.066;2024-03-02T09:12:34;5.30;99.90
31369;DHT22;18004;48.416;10.066;2024-03-02T09:15:03;5.40;99.90
31369;DHT22;18004;48.416;10.066;2024-03-02T09:17:29;5.40;99.90
31369;DHT22;18004;48.416;10.066;2024-03-02T09:19:55;5.50;99.90
31369;DHT22;18004;48.416;10.066;2024-03-02T09:22:21;5.50;99.90
31369;DHT22;18004;48.416;10.066;2024-03-02T09:24:46;5.50;99.90
31369;DHT22;18004;48.416;10.066;2024-03-02T09:27:12;5.60;99.90
31369;DHT22;18004;48.416;10.066;2024-03-02T09:29:38;5.60;99.90
31369;DHT22;18004;48.416;10.066;2024-03-02T09:32:05;5.70;99.90
31369;DHT22;18004;48.416;10.066;2024-03-02T09:34:32;5.70;99.90
31369;DHT22;18004;48.416;10.066;2024-03-02T09:36:58;5.70;99.90
31369;DHT22;18004;48.416;10.066;2024-03-02T09:39:24;5.60;99.90
31369;DHT22;18004;48.416;10.066;2024-03-02T09:41:51;5.60;99.90
31369;DHT22;18004;48.416;10.066;2024-03-02T09:44:17;5.70;99.90
31369;DHT22;18004;48.416;10.066;2024-03-02T09:46:43;5.70;99.90
31369;DHT22;18004;48.416;10.066;2024-03-02T09:49:12;5.70;99.90
31369;DHT22;18004;48.416;10.066;2024-03-02T09:51:38;5.80;99.90
31369;DHT22;18004;48.416;10.066;2024-03-02T09:54:07;5.90;99.90
31369;DHT22;18004;48.416;10.066;2024-03-02T09:56:33;6.10;99.90
31369;DHT22;18004;48.416;10.066;2024-03-02T09:58:59;6.10;99.90
31369;DHT22;18004;48.416;10.066;2024-03-02T10:01:25;6.20;99.90
31369;DHT22;18004;48.416;10.066;2024-03-02T10:03:52;6.20;99.90
31369;DHT22;18004;48.416;10.066;2024-03-02T10:06:22;6.20;99.90
31369;DHT22;18004;48.416;10.066;2024-03-02T10:08:49;6.30;99.90
31369;DHT22;18004;48.416;10.066;2024-03-02T10:11:31;6.30;99.90
31369;DHT22;18004;48.416;10.066;2024-03-02T10:14:11;6.00;99.90
31369;DHT22;18004;48.416;10.066;2024-03-02T10:16:40;6.20;99.90
31369;DHT22;18004;48.416;10.066;2024-03-02T10:19:23;6.40;99.90
31369;DHT22;18004;48.416;10.066;2024-03-02T10:21:59;6.40;99.90
31369;DHT22;18004;48.416;10.066;2024-03-02T10:24:25;6.50;99.90
31369;DHT22;18004;48.416;10.066;2024-03-02T10:26:51;6.50;99.90
31369;DHT22;18004;48.416;10.066;2024-03-02T10:29:18;6.60;99.90
31369;DHT22;18004;48.416;10.066;2024-03-02T10:31:45;6.70;99.90
31369;DHT22;18004;48.416;10.066;2024-03-02T10:34:12;6.80;99.90
31369;DHT22;18004;48.416;10.066;2024-03-02T10:36:41;6.80;99.90
31369;DHT22;18004;48.416;10.066;2024-03-02T10:39:08;6.80;99.90
31369;DHT22;18004;48.416;10.066;2024-03-02T10:41:36;6.80;99.90
31369;DHT22;18004;48.416;10.066;2024-03-02T10:44:06;6.80;99.90
31369;DHT22;18004;48.416;10.066;2024-03-02T10:46:33;6.70;99.90
31369;DHT22;18004;48.416;10.066;2024-03-02T10:49:01;6.90;99.90
31369;DHT22;18004;48.416;10.066;2024-03-02T10:51:29;7.00;99.90
31369;DHT22;18004;48.416;10.066;2024-03-02T10:54:01;7.20;99.90
31369;DHT22;18004;48.416;10.066;2024-03-02T10:56:32;7.30;99.90
31369;DHT22;18004;48.416;10.066;2024-03-02T10:59:33;7.20;99.90
31369;DHT22;18004;48.416;10.066;2024-03-02T11:02:00;7.00;99.90
31369;DHT22;18004;48.416;10.066;2024-03-02T11:04:27;7.00;99.90
31369;DHT22;18004;48.416;10.066;2024-03-02T11:09:33;7.00;99.90
31369;DHT22;18004;48.416;10.066;2024-03-02T11:12:09;7.20;99.90
31369;DHT22;18004;48.416;10.066;2024-03-02T11:14:40;7.50;99.90
31369;DHT22;18004;48.416;10.066;2024-03-02T11:17:09;7.40;99.90
31369;DHT22;18004;48.416;10.066;2024-03-02T11:19:40;7.50;99.90
31369;DHT22;18004;48.416;10.066;2024-03-02T11:22:06;7.70;99.90
31369;DHT22;18004;48.416;10.066;2024-03-02T11:24:33;7.80;99.90
31369;DHT22;18004;48.416;10.066;2024-03-02T11:27:03;8.10;99.90
31369;DHT22;18004;48.416;10.066;2024-03-02T11:32:03;8.20;99.90
31369;DHT22;18004;48.416;10.066;2024-03-02T11:34:35;8.30;99.90
31369;DHT22;18004;48.416;10.066;2024-03-02T11:37:01;8.30;99.90
31369;DHT22;18004;48.416;10.066;2024-03-02T11:39:31;8.30;99.90
31369;DHT22;18004;48.416;10.066;2024-03-02T11:41:58;8.40;99.90
31369;DHT22;18004;48.416;10.066;2024-03-02T11:44:27;8.50;99.90
31369;DHT22;18004;48.416;10.066;2024-03-02T11:47:06;8.70;99.90
31369;DHT22;18004;48.416;10.066;2024-03-02T11:50:05;8.80;99.90
31369;DHT22;18004;48.416;10.066;2024-03-02T11:52:33;8.90;99.90
31369;DHT22;18004;48.416;10.066;2024-03-02T11:55:00;9.10;99.90
31369;DHT22;18004;48.416;10.066;2024-03-02T11:57:27;9.10;99.90
31369;DHT22;18004;48.416;10.066;2024-03-02T11:59:57;9.20;99.90
31369;DHT22;18004;48.416;10.066;2024-03-02T12:02:25;9.30;99.90
31369;DHT22;18004;48.416;10.066;2024-03-02T12:04:50;9.40;99.90
31369;DHT22;18004;48.416;10.066;2024-03-02T12:07:21;9.50;99.90
31369;DHT22;18004;48.416;10.066;2024-03-02T12:09:59;9.70;99.90
31369;DHT22;18004;48.416;10.066;2024-03-02T12:12:26;9.90;99.90
31369;DHT22;18004;48.416;10.066;2024-03-02T12:14:53;9.80;99.90
31369;DHT22;18004;48.416;10.066;2024-03-02T12:17:21;9.80;99.90
31369;DHT22;18004;48.416;10.066;2024-03-02T12:19:47;9.80;99.90
31369;DHT22;18004;48.416;10.066;2024-03-02T12:22:14;9.90;99.90
31369;DHT22;18004;48.416;10.066;2024-03-02T12:24:41;10.00;99.90
31369;DHT22;18004;48.416;10.066;2024-03-02T12:27:12;10.00;99.90
31369;DHT22;18004;48.416;10.066;2024-03-02T12:29:38;10.20;99.90
31369;DHT22;18004;48.416;10.066;2024-03-02T12:32:05;10.30;99.90
31369;DHT22;18004;48.416;10.066;2024-03-02T12:34:31;10.40;99.90
31369;DHT22;18004;48.416;10.066;2024-03-02T12:36:57;10.50;99.90
31369;DHT22;18004;48.416;10.066;2024-03-02T12:39:23;10.60;99.90
31369;DHT22;18004;48.416;10.066;2024-03-02T12:41:49;10.60;99.90
31369;DHT22;18004;48.416;10.066;2024-03-02T12:44:20;10.70;99.90
31369;DHT22;18004;48.416;10.066;2024-03-02T12:46:46;10.60;99.90
31369;DHT22;18004;48.416;10.066;2024-03-02T12:49:14;10.60;99.90
31369;DHT22;18004;48.416;10.066;2024-03-02T12:51:43;10.70;99.90
31369;DHT22;18004;48.416;10.066;2024-03-02T12:54:12;10.70;99.90
31369;DHT22;18004;48.416;10.066;2024-03-02T12:56:38;10.80;99.90
31369;DHT22;18004;48.416;10.066;2024-03-02T12:59:04;10.80;99.90
31369;DHT22;18004;48.416;10.066;2024-03-02T13:01:31;10.70;99.90
31369;DHT22;18004;48.416;10.066;2024-03-02T13:03:58;10.70;99.90
31369;DHT22;18004;48.416;10.066;2024-03-02T13:06:25;10.80;99.90
31369;DHT22;18004;48.416;10.066;2024-03-02T13:08:53;10.80;99.90
31369;DHT22;18004;48.416;10.066;2024-03-02T13:11:21;10.80;99.90
31369;DHT22;18004;48.416;10.066;2024-03-02T13:13:48;11.10;99.90
31369;DHT22;18004;48.416;10.066;2024-03-02T13:16:14;11.00;99.90
31369;DHT22;18004;48.416;10.066;2024-03-02T13:18:41;11.00;99.90
31369;DHT22;18004;48.416;10.066;2024-03-02T13:21:08;11.10;99.90
31369;DHT22;18004;48.416;10.066;2024-03-02T13:23:34;11.20;99.90
31369;DHT22;18004;48.416;10.066;2024-03-02T13:26:00;11.20;99.90
31369;DHT22;18004;48.416;10.066;2024-03-02T13:28:26;11.30;99.90
31369;DHT22;18004;48.416;10.066;2024-03-02T13:30:52;11.30;99.90
31369;DHT22;18004;48.416;10.066;2024-03-02T13:33:18;11.30;99.90
31369;DHT22;18004;48.416;10.066;2024-03-02T13:35:51;11.40;99.90
31369;DHT22;18004;48.416;10.066;2024-03-02T13:38:20;11.40;99.90
31369;DHT22;18004;48.416;10.066;2024-03-02T13:40:48;11.50;99.90
31369;DHT22;18004;48.416;10.066;2024-03-02T13:43:17;11.60;99.90
31369;DHT22;18004;48.416;10.066;2024-03-02T13:45:44;11.80;99.90
31369;DHT22;18004;48.416;10.066;2024-03-02T13:48:09;11.70;99.90
31369;DHT22;18004;48.416;10.066;2024-03-02T13:50:35;11.80;99.90
31369;DHT22;18004;48.416;10.066;2024-03-02T13:53:01;11.90;99.90
31369;DHT22;18004;48.416;10.066;2024-03-02T13:55:28;12.00;99.90
31369;DHT22;18004;48.416;10.066;2024-03-02T13:57:54;12.00;99.90
31369;DHT22;18004;48.416;10.066;2024-03-02T14:00:20;12.00;99.90
31369;DHT22;18004;48.416;10.066;2024-03-02T14:02:46;12.10;99.90
31369;DHT22;18004;48.416;10.066;2024-03-02T14:05:15;12.20;99.90
31369;DHT22;18004;48.416;10.066;2024-03-02T14:07:42;12.30;99.90
31369;DHT22;18004;48.416;10.066;2024-03-02T14:10:09;12.40;99.90
31369;DHT22;18004;48.416;10.066;2024-03-02T14:12:35;12.40;99.90
31369;DHT22;18004;48.416;10.066;2024-03-02T14:15:01;12.50;99.90
31369;DHT22;18004;48.416;10.066;2024-03-02T14:17:30;12.50;99.90
31369;DHT22;18004;48.416;10.066;2024-03-02T14:19:58;12.60;99.90
31369;DHT22;18004;48.416;10.066;2024-03-02T14:22:25;12.60;99.90
31369;DHT22;18004;48.416;10.066;2024-03-02T14:24:51;12.50;99.90
31369;DHT22;18004;48.416;10.066;2024-03-02T14:27:16;12.60;99.90
31369;DHT22;18004;48.416;10.066;2024-03-02T14:29:43;12.70;99.90
31369;DHT22;18004;48.416;10.066;2024-03-02T14:32:09;12.70;99.90
31369;DHT22;18004;48.416;10.066;2024-03-02T14:34:34;12.80;99.90
31369;DHT22;18004;48.416;10.066;2024-03-02T14:37:00;12.80;99.90
31369;DHT22;18004;48.416;10.066;2024-03-02T14:39:26;12.70;99.90
31369;DHT22;18004;48.416;10.066;2024-03-02T14:41:52;12.80;99.90
31369;DHT22;18004;48.416;10.066;2024-03-02T14:44:18;12.90;99.90
31369;DHT22;18004;48.416;10.066;2024-03-02T14:46:48;12.80;99.90
31369;DHT22;18004;48.416;10.066;2024-03-02T14:49:14;12.70;99.90
31369;DHT22;18004;48.416;10.066;2024-03-02T14:51:40;12.70;99.90
31369;DHT22;18004;48.416;10.066;2024-03-02T14:54:06;12.70;99.90
31369;DHT22;18004;48.416;10.066;2024-03-02T14:56:32;12.80;99.90
31369;DHT22;18004;48.416;10.066;2024-03-02T14:58:58;12.80;99.90
31369;DHT22;18004;48.416;10.066;2024-03-02T15:01:23;12.80;99.90
31369;DHT22;18004;48.416;10.066;2024-03-02T15:03:52;12.90;99.90
31369;DHT22;18004;48.416;10.066;2024-03-02T15:06:18;12.80;99.90
31369;DHT22;18004;48.416;10.066;2024-03-02T15:08:44;12.80;99.90
31369;DHT22;18004;48.416;10.066;2024-03-02T15:11:14;12.90;99.90
31369;DHT22;18004;48.416;10.066;2024-03-02T15:13:40;12.90;99.90
31369;DHT22;18004;48.416;10.066;2024-03-02T15:16:06;12.80;99.90
31369;DHT22;18004;48.416;10.066;2024-03-02T15:18:32;12.90;99.90
31369;DHT22;18004;48.416;10.066;2024-03-02T15:20:57;12.80;99.90
31369;DHT22;18004;48.416;10.066;2024-03-02T15:23:23;12.80;99.90
31369;DHT22;18004;48.416;10.066;2024-03-02T15:25:49;12.80;99.90
31369;DHT22;18004;48.416;10.066;2024-03-02T15:28:16;12.80;99.90
31369;DHT22;18004;48.416;10.066;2024-03-02T15:30:41;12.90;99.90
31369;DHT22;18004;48.416;10.066;2024-03-02T15:33:07;12.90;99.10
31369;DHT22;18004;48.416;10.066;2024-03-02T15:35:33;12.70;99.90
31369;DHT22;18004;48.416;10.066;2024-03-02T15:37:59;12.60;99.90